Trujillo Alto, PR (00976)

7:03 AM AST on August 25, 2016 (GMT -0400)
Colinas de Fairview | | Change Station

Elev 308 ft 18.36 °N, 66.03 °W | Updated 25 seconds ago

Mostly Cloudy
Mostly Cloudy
77.9 °F
Feels Like 80 °F
N
1.1
Wind Variable Wind from ESE

Today
High -- | Low -- °F
--% Chance of Precip.
Yesterday
High -- | Low -- °F
Precip. -- in
Pressure 29.92 in
Visibility 10.0 miles
Clouds Few 2600 ft
Mostly Cloudy 6000 ft
Mostly Cloudy 9000 ft
Heat Index 80 °F
Dew Point 76 °F
Humidity 93%
Rainfall 0.02 in
Snow Depth Not available.
6:08 AM 6:43 PM
Waning Gibbous, 47% visible
METAR TJSJ 251056Z 00000KT 10SM FEW026 BKN060 BKN090 27/24 A2992 RMK AO2 SLP130 T02720239
Pressure 29.92 in
Visibility 10.0 miles
Clouds Few 2600 ft
Mostly Cloudy 6000 ft
Mostly Cloudy 9000 ft
Heat Index 80 °F
Dew Point 76 °F
Humidity 93%
Rainfall 0.02 in
Snow Depth Not available.
6:08 AM 6:43 PM
Waning Gibbous, 47% visible
METAR TJSJ 251056Z 00000KT 10SM FEW026 BKN060 BKN090 27/24 A2992 RMK AO2 SLP130 T02720239

10-Day Weather Forecast

Almanac

Astronomy

Aug. 25, 2016 Rise Set
Actual Time
Civil Twilight
Nautical Twilight
Astronomical Twilight
Moon
Length of Visible Light
Length of Day
Tomorrow will be .
, % of the Moon is Illuminated

Today's Extremes

State Highs State Lows

Community

WunderPhotos

Upload Photos

1,934,822 photos uploaded!

WunderBlog® & News

Nearby

Air Quality

  Air Quality AQ Index Pollutant
Not available.

Snow Depth

Station Depth Elevation

Earthquake Activity

City Distance Mag. Time & Date
Minimum magnitude displayed is 2.5.

Coastal Water Temperatures

Place Temperature

Stations

Nearby Weather Stations

Station Location Temp. Windchill Dew Point Humidity Wind Precip. Elev Updated Type
                   

Watches & Warnings

There are currently no watches in effect.